createdAt,value
2023-03-30T00:02:06.828Z,36.49
2023-03-30T00:04:37.683Z,36.52
2023-03-30T00:07:08.471Z,36.44
2023-03-30T00:09:42.537Z,36.45
2023-03-30T00:12:11.191Z,36.42
2023-03-30T00:14:39.319Z,36.51
2023-03-30T00:17:08.624Z,36.48
2023-03-30T00:19:38.122Z,36.40
2023-03-30T00:22:09.417Z,36.39
2023-03-30T00:24:38.267Z,36.53
2023-03-30T00:27:06.957Z,36.41
2023-03-30T00:29:35.397Z,36.55
2023-03-30T00:32:03.680Z,36.49
2023-03-30T00:34:31.846Z,36.39
2023-03-30T00:36:59.968Z,36.39
2023-03-30T00:39:29.508Z,36.35
2023-03-30T00:41:57.652Z,36.40
2023-03-30T00:45:14.671Z,36.39
2023-03-30T00:47:47.429Z,36.34
2023-03-30T00:50:17.015Z,36.46
2023-03-30T00:52:47.578Z,36.39
2023-03-30T00:55:17.154Z,36.46
2023-03-30T00:57:45.701Z,36.42
2023-03-30T01:00:14.837Z,36.41
2023-03-30T01:02:48.826Z,36.49
2023-03-30T01:05:17.450Z,36.30
2023-03-30T01:07:49.907Z,36.40
2023-03-30T01:10:20.372Z,36.35
2023-03-30T01:12:49.442Z,36.42
2023-03-30T01:15:18.163Z,36.53
2023-03-30T01:18:08.931Z,36.35
2023-03-30T01:21:10.224Z,36.36
2023-03-30T01:24:28.873Z,36.18
2023-03-30T01:27:02.128Z,36.29
2023-03-30T01:29:54.841Z,36.34
2023-03-30T01:32:55.825Z,36.31
2023-03-30T01:35:46.456Z,36.35
2023-03-30T01:39:02.337Z,36.03
2023-03-30T01:41:37.668Z,36.25
2023-03-30T01:44:17.442Z,36.28
2023-03-30T01:46:49.533Z,36.33
2023-03-30T01:49:25.260Z,36.28
2023-03-30T01:52:02.670Z,36.16
2023-03-30T01:54:35.826Z,36.28
2023-03-30T01:57:10.885Z,36.19
2023-03-30T01:59:42.795Z,36.41
2023-03-30T02:02:14.886Z,36.26
2023-03-30T02:04:46.575Z,36.23
2023-03-30T02:07:18.560Z,36.37
2023-03-30T02:09:50.446Z,36.41
2023-03-30T02:12:21.808Z,36.27
2023-03-30T02:14:50.730Z,36.24
2023-03-30T02:17:23.170Z,36.30
2023-03-30T02:19:52.222Z,36.24
2023-03-30T02:22:21.646Z,36.22
2023-03-30T02:24:51.903Z,36.28
2023-03-30T02:27:23.067Z,36.08
2023-03-30T02:29:51.256Z,36.24
2023-03-30T02:32:22.232Z,36.37
2023-03-30T02:35:09.151Z,36.24
2023-03-30T02:37:58.236Z,36.07
2023-03-30T02:40:37.872Z,36.17
2023-03-30T02:43:24.591Z,36.09
2023-03-30T02:46:05.659Z,36.26
2023-03-30T02:48:41.212Z,36.17
2023-03-30T02:51:32.084Z,36.01
2023-03-30T02:54:08.106Z,36.26
2023-03-30T02:56:44.775Z,36.30
2023-03-30T02:59:19.003Z,36.21
2023-03-30T03:01:52.775Z,36.21
2023-03-30T03:04:23.445Z,36.32
2023-03-30T03:06:55.858Z,36.15
2023-03-30T03:09:26.622Z,36.32
2023-03-30T03:11:54.746Z,36.18
2023-03-30T03:14:26.652Z,36.20
2023-03-30T03:16:55.750Z,36.17
2023-03-30T03:19:23.960Z,36.13
2023-03-30T03:21:52.120Z,36.19
2023-03-30T03:24:20.304Z,36.24
2023-03-30T03:26:48.745Z,36.14
2023-03-30T03:29:16.924Z,36.06
2023-03-30T03:31:46.471Z,36.20
2023-03-30T03:34:14.629Z,36.15
2023-03-30T03:36:43.736Z,36.09
2023-03-30T03:39:11.977Z,36.07
2023-03-30T03:41:41.031Z,35.97
2023-03-30T03:44:09.158Z,36.15
2023-03-30T03:46:37.428Z,36.25
2023-03-30T03:49:07.348Z,36.09
2023-03-30T03:51:36.056Z,36.21
2023-03-30T03:54:04.360Z,36.06
2023-03-30T03:56:33.486Z,36.09
2023-03-30T03:59:03.613Z,36.08
2023-03-30T04:01:32.233Z,36.08
2023-03-30T04:04:00.602Z,36.13
2023-03-30T04:06:30.335Z,35.99
2023-03-30T04:08:58.581Z,35.89
2023-03-30T04:11:27.479Z,36.15
2023-03-30T04:13:55.737Z,36.04
2023-03-30T04:16:23.905Z,36.17
2023-03-30T04:18:52.040Z,36.09
2023-03-30T04:21:20.444Z,36.13
2023-03-30T04:23:50.282Z,36.02
2023-03-30T04:26:18.692Z,35.92
2023-03-30T04:28:47.222Z,36.13
2023-03-30T04:31:15.392Z,35.92
2023-03-30T04:33:51.984Z,36.12
2023-03-30T04:36:20.952Z,36.15
2023-03-30T04:38:59.083Z,36.00
2023-03-30T04:41:33.554Z,36.09
2023-03-30T04:44:03.742Z,35.91
2023-03-30T04:46:31.948Z,35.99
2023-03-30T04:49:00.868Z,36.06
2023-03-30T04:51:29.939Z,36.00
2023-03-30T04:53:59.699Z,36.09
2023-03-30T04:56:27.989Z,36.16
2023-03-30T04:58:56.232Z,36.11
2023-03-30T05:01:24.948Z,36.07
2023-03-30T05:03:53.117Z,35.95
2023-03-30T05:06:21.704Z,36.13
2023-03-30T05:08:49.943Z,36.37
2023-03-30T05:11:19.536Z,36.02
2023-03-30T05:13:47.662Z,36.02
2023-03-30T05:16:16.248Z,36.13
2023-03-30T05:18:44.783Z,36.05
2023-03-30T05:21:13.002Z,35.99
2023-03-30T05:23:42.678Z,36.06
2023-03-30T05:26:10.988Z,36.15
2023-03-30T05:28:40.611Z,36.08
2023-03-30T05:31:08.805Z,36.11
2023-03-30T05:33:36.986Z,36.07
2023-03-30T05:36:06.224Z,36.06
2023-03-30T05:38:34.461Z,36.05
2023-03-30T05:41:02.736Z,35.96
2023-03-30T05:43:31.090Z,35.90
2023-03-30T05:46:02.729Z,36.01
2023-03-30T05:48:31.315Z,36.14
2023-03-30T05:51:02.127Z,36.19
2023-03-30T05:53:30.684Z,36.04
2023-03-30T05:55:59.030Z,35.94
2023-03-30T05:58:27.620Z,36.01
2023-03-30T06:01:00.629Z,36.08
2023-03-30T06:03:28.972Z,36.04
2023-03-30T06:05:57.250Z,36.04
2023-03-30T06:08:27.080Z,36.03
2023-03-30T06:10:56.443Z,36.08
2023-03-30T06:13:25.325Z,36.13
2023-03-30T06:15:53.510Z,36.14
2023-03-30T06:18:23.219Z,36.04
2023-03-30T06:20:51.976Z,36.03
2023-03-30T06:23:20.257Z,36.02
2023-03-30T06:25:53.006Z,36.12
2023-03-30T06:28:21.397Z,36.17
2023-03-30T06:30:49.894Z,36.01
2023-03-30T06:33:18.681Z,36.07
2023-03-30T06:35:49.038Z,36.17
2023-03-30T06:38:18.040Z,36.16
2023-03-30T06:40:46.897Z,36.08
2023-03-30T06:43:18.621Z,36.16
2023-03-30T06:45:51.761Z,36.06
2023-03-30T06:48:22.647Z,36.15
2023-03-30T06:50:52.605Z,36.20
2023-03-30T06:53:21.050Z,36.08
2023-03-30T06:55:53.051Z,36.21
2023-03-30T06:58:21.260Z,36.07
2023-03-30T07:00:50.238Z,36.23
2023-03-30T07:03:20.025Z,36.13
2023-03-30T07:05:49.476Z,36.03
2023-03-30T07:08:19.441Z,36.18
2023-03-30T07:10:48.733Z,36.16
2023-03-30T07:13:17.749Z,36.18
2023-03-30T07:15:47.066Z,36.07
2023-03-30T07:18:15.588Z,36.16
2023-03-30T07:20:45.477Z,36.16
2023-03-30T07:23:14.975Z,36.16
2023-03-30T07:25:45.962Z,36.06
2023-03-30T07:28:14.597Z,36.22
2023-03-30T07:30:42.795Z,36.19
2023-03-30T07:33:11.686Z,36.06
2023-03-30T07:35:45.084Z,36.25
2023-03-30T07:38:13.597Z,36.15
2023-03-30T07:40:41.722Z,36.17
2023-03-30T07:43:11.784Z,36.09
2023-03-30T07:45:39.977Z,36.09
2023-03-30T07:48:08.251Z,36.06
2023-03-30T07:50:36.630Z,36.14
2023-03-30T07:53:04.984Z,36.14
2023-03-30T07:55:33.631Z,36.10
2023-03-30T07:58:01.782Z,36.15
2023-03-30T08:00:32.698Z,36.20
2023-03-30T08:03:01.075Z,36.11
2023-03-30T08:05:29.369Z,36.09
2023-03-30T08:07:57.485Z,36.13
2023-03-30T08:10:25.766Z,36.25
2023-03-30T08:12:53.923Z,36.11
2023-03-30T08:15:22.271Z,36.14
2023-03-30T08:17:51.961Z,36.09
2023-03-30T08:20:20.337Z,36.18
2023-03-30T08:22:49.652Z,36.07
2023-03-30T08:25:18.192Z,36.07
2023-03-30T08:27:46.594Z,36.20
2023-03-30T08:30:16.628Z,36.09
2023-03-30T08:32:44.857Z,36.27
2023-03-30T08:35:15.070Z,36.24
2023-03-30T08:37:43.568Z,36.14
2023-03-30T08:40:12.966Z,36.26
2023-03-30T08:43:13.249Z,36.22
2023-03-30T08:45:44.009Z,36.21
2023-03-30T08:48:18.164Z,36.27
2023-03-30T08:50:59.710Z,36.24
2023-03-30T08:53:30.912Z,36.29
2023-03-30T08:56:07.830Z,36.12
2023-03-30T08:58:45.498Z,36.29
2023-03-30T09:01:21.635Z,36.26
2023-03-30T09:04:03.370Z,36.28
2023-03-30T09:06:44.962Z,36.29
2023-03-30T09:09:16.058Z,36.22
2023-03-30T09:11:44.753Z,36.16
2023-03-30T09:14:20.937Z,36.23
2023-03-30T09:16:55.242Z,36.27
2023-03-30T09:19:28.704Z,36.10
2023-03-30T09:22:01.150Z,36.27
2023-03-30T09:24:29.989Z,36.12
2023-03-30T09:27:03.594Z,36.28
2023-03-30T09:29:35.891Z,36.28
2023-03-30T09:32:11.332Z,36.19
2023-03-30T09:34:45.013Z,36.19
2023-03-30T09:37:18.753Z,36.13
2023-03-30T09:39:47.549Z,36.11
2023-03-30T09:42:26.193Z,36.21
2023-03-30T09:44:58.188Z,36.19
2023-03-30T09:47:28.428Z,36.31
2023-03-30T09:49:58.850Z,36.25
2023-03-30T09:52:30.077Z,36.14
2023-03-30T09:54:58.538Z,36.23
2023-03-30T09:57:29.842Z,36.25
2023-03-30T10:00:00.282Z,36.22
2023-03-30T10:02:31.598Z,36.17
2023-03-30T10:05:05.150Z,36.11
2023-03-30T10:07:37.857Z,36.23
2023-03-30T10:10:17.197Z,36.12
2023-03-30T10:12:46.414Z,36.19
2023-03-30T10:15:18.489Z,36.25
2023-03-30T10:17:48.423Z,36.35
2023-03-30T10:20:28.005Z,36.29
2023-03-30T10:23:03.230Z,36.26
2023-03-30T10:25:34.944Z,36.16
2023-03-30T10:28:04.765Z,36.32
2023-03-30T10:30:34.833Z,36.33
2023-03-30T10:33:04.401Z,36.33
2023-03-30T10:35:37.251Z,36.30
2023-03-30T10:38:10.672Z,36.35
2023-03-30T10:40:41.992Z,36.20
2023-03-30T10:43:15.989Z,36.25
2023-03-30T10:45:48.383Z,36.48
2023-03-30T10:48:36.317Z,36.25
2023-03-30T10:51:12.001Z,36.35
2023-03-30T10:53:49.437Z,36.31
2023-03-30T10:56:28.774Z,36.30
2023-03-30T10:59:09.257Z,36.27
2023-03-30T11:01:48.354Z,36.17
2023-03-30T11:04:24.232Z,36.25
2023-03-30T11:06:57.644Z,36.24
2023-03-30T11:09:31.571Z,36.33
2023-03-30T11:12:04.621Z,36.24
2023-03-30T11:14:42.855Z,36.27
2023-03-30T11:17:17.881Z,36.24
2023-03-30T11:19:50.698Z,36.38
2023-03-30T11:22:29.765Z,36.25
2023-03-30T11:25:02.381Z,36.23
2023-03-30T11:27:36.638Z,36.28
2023-03-30T11:30:12.656Z,36.32
2023-03-30T11:32:49.351Z,36.35
2023-03-30T11:35:26.228Z,36.21
2023-03-30T11:37:59.782Z,36.37
2023-03-30T11:40:34.591Z,36.33
2023-03-30T11:43:03.235Z,36.27
2023-03-30T11:45:56.025Z,36.31
2023-03-30T11:48:52.068Z,36.31
2023-03-30T11:51:39.804Z,36.33
2023-03-30T11:54:26.342Z,36.33
2023-03-30T11:57:07.460Z,36.39
2023-03-30T11:59:46.612Z,36.43
2023-03-30T12:02:28.278Z,36.39
2023-03-30T12:05:02.502Z,36.27
2023-03-30T12:07:38.760Z,36.37
2023-03-30T12:10:17.297Z,36.44
2023-03-30T12:12:49.519Z,36.36
2023-03-30T12:15:35.830Z,36.54
2023-03-30T12:18:18.965Z,36.30
2023-03-30T12:20:53.693Z,36.31
2023-03-30T12:23:37.880Z,36.52
2023-03-30T12:26:26.910Z,36.50
2023-03-30T12:31:52.749Z,36.51
2023-03-30T12:34:22.659Z,36.43
2023-03-30T12:36:54.988Z,36.35
2023-03-30T12:39:31.179Z,36.51
2023-03-30T12:42:07.015Z,36.46
2023-03-30T12:44:48.848Z,36.68
2023-03-30T12:47:38.839Z,36.72
2023-03-30T12:50:19.404Z,36.79
2023-03-30T12:53:04.387Z,36.79
2023-03-30T12:55:45.709Z,36.96
2023-03-30T12:58:44.467Z,37.05
2023-03-30T13:01:22.310Z,36.85
2023-03-30T13:03:53.004Z,36.77
2023-03-30T13:06:30.033Z,36.94
2023-03-30T13:09:27.752Z,37.04
2023-03-30T13:12:29.027Z,37.43
2023-03-30T13:15:03.691Z,37.04
2023-03-30T13:17:58.333Z,37.49
2023-03-30T13:20:32.988Z,36.98
2023-03-30T13:23:32.713Z,37.49
2023-03-30T13:26:07.857Z,37.05
2023-03-30T13:28:56.145Z,37.38
2023-03-30T13:31:37.602Z,37.29
2023-03-30T13:34:22.168Z,37.45
2023-03-30T13:37:01.326Z,37.26
2023-03-30T13:39:41.131Z,37.30
2023-03-30T13:42:29.806Z,37.62
2023-03-30T13:45:07.269Z,37.12
2023-03-30T13:47:57.560Z,37.58
2023-03-30T13:50:31.423Z,37.36
2023-03-30T13:53:02.974Z,37.49
2023-03-30T13:55:34.174Z,37.40
2023-03-30T13:58:06.323Z,37.49
2023-03-30T14:00:48.052Z,37.46
2023-03-30T14:03:31.879Z,37.90
2023-03-30T14:06:04.149Z,37.30
2023-03-30T14:08:38.086Z,37.44
2023-03-30T14:11:13.468Z,37.65
2023-03-30T14:13:43.349Z,37.46
2023-03-30T14:16:15.135Z,37.65
2023-03-30T14:18:43.884Z,37.49
2023-03-30T14:21:18.413Z,37.63
2023-03-30T14:23:52.450Z,37.63
2023-03-30T14:26:24.654Z,37.54
2023-03-30T14:28:56.798Z,37.56
2023-03-30T14:31:27.403Z,37.72
2023-03-30T14:33:57.071Z,37.61
2023-03-30T14:36:26.862Z,37.59
2023-03-30T14:38:57.629Z,37.62
2023-03-30T14:41:28.162Z,37.51
2023-03-30T14:43:59.008Z,37.53
2023-03-30T14:46:40.354Z,37.65
2023-03-30T14:49:09.881Z,37.69
2023-03-30T14:52:02.324Z,37.86
2023-03-30T14:54:31.679Z,37.69
2023-03-30T14:57:02.291Z,37.58
2023-03-30T14:59:34.171Z,37.67
2023-03-30T15:02:08.143Z,37.70
2023-03-30T15:04:38.802Z,37.58
2023-03-30T15:07:08.465Z,37.71
2023-03-30T15:09:40.175Z,37.69
2023-03-30T15:12:08.840Z,37.71
2023-03-30T15:14:40.935Z,37.62
2023-03-30T15:17:21.573Z,37.92
2023-03-30T15:19:54.261Z,37.65
2023-03-30T15:22:28.325Z,37.64
2023-03-30T15:24:59.808Z,37.71
2023-03-30T15:27:28.212Z,37.70
2023-03-30T15:29:58.009Z,37.75
2023-03-30T15:32:35.285Z,37.82
2023-03-30T15:35:09.420Z,37.71
2023-03-30T15:37:39.832Z,37.82
2023-03-30T15:40:28.677Z,38.26
2023-03-30T15:43:19.006Z,37.93
2023-03-30T15:45:54.174Z,37.82
2023-03-30T15:48:25.342Z,37.71
2023-03-30T15:51:07.018Z,37.89
2023-03-30T15:53:55.604Z,38.11
2023-03-30T15:56:28.441Z,37.66
2023-03-30T15:58:59.587Z,37.69
2023-03-30T16:01:40.960Z,37.78
2023-03-30T16:04:09.641Z,37.65
2023-03-30T16:06:38.148Z,37.70
2023-03-30T16:09:08.411Z,37.65
2023-03-30T16:11:37.144Z,37.48
2023-03-30T16:14:07.226Z,37.65
2023-03-30T16:16:35.492Z,37.54
2023-03-30T16:19:04.254Z,37.60
2023-03-30T16:21:32.499Z,37.56
2023-03-30T16:24:00.651Z,37.47
2023-03-30T16:26:30.328Z,37.45
2023-03-30T16:28:58.433Z,37.61
2023-03-30T16:31:26.596Z,37.47
2023-03-30T16:33:54.812Z,37.44
2023-03-30T16:36:24.835Z,37.47
2023-03-30T16:38:53.018Z,37.36
2023-03-30T16:41:23.220Z,37.48
2023-03-30T16:43:52.821Z,37.49
2023-03-30T16:46:22.319Z,37.42
2023-03-30T16:48:51.046Z,37.41
2023-03-30T16:51:20.144Z,37.50
2023-03-30T16:53:48.290Z,37.44
2023-03-30T16:56:18.681Z,37.27
2023-03-30T16:58:47.691Z,37.32
2023-03-30T17:01:18.996Z,37.42
2023-03-30T17:03:47.817Z,37.28
2023-03-30T17:06:17.195Z,37.41
2023-03-30T17:08:45.664Z,37.42
2023-03-30T17:11:14.030Z,37.34
2023-03-30T17:13:43.249Z,37.25
2023-03-30T17:16:14.033Z,37.42
2023-03-30T17:18:43.965Z,37.36
2023-03-30T17:21:16.493Z,37.41
2023-03-30T17:23:46.537Z,37.44
2023-03-30T17:26:14.789Z,37.34
2023-03-30T17:28:43.511Z,37.24
2023-03-30T17:31:16.722Z,37.16
2023-03-30T17:33:46.564Z,37.34
2023-03-30T17:36:18.971Z,37.43
2023-03-30T17:38:47.754Z,37.33
2023-03-30T17:41:20.054Z,37.32
2023-03-30T17:43:49.302Z,37.42
2023-03-30T17:46:20.244Z,37.60
2023-03-30T17:48:51.281Z,37.58
2023-03-30T17:51:19.670Z,37.70
2023-03-30T17:53:47.975Z,37.83
2023-03-30T17:56:16.148Z,37.70
2023-03-30T17:58:46.100Z,37.89
2023-03-30T18:01:17.062Z,37.88
2023-03-30T18:03:45.459Z,37.94
2023-03-30T18:06:15.082Z,37.94
2023-03-30T18:08:44.141Z,37.99
2023-03-30T18:11:12.615Z,37.86
2023-03-30T18:13:41.055Z,38.03
2023-03-30T18:16:12.720Z,38.04
2023-03-30T18:18:40.960Z,38.07
2023-03-30T18:21:11.644Z,38.09
2023-03-30T18:23:41.585Z,38.03
2023-03-30T18:26:13.986Z,38.06
2023-03-30T18:28:44.307Z,37.94
2023-03-30T18:31:13.036Z,38.06
2023-03-30T18:33:41.328Z,38.15
2023-03-30T18:36:12.938Z,38.18
2023-03-30T18:38:43.343Z,38.19
2023-03-30T18:41:13.243Z,38.01
2023-03-30T18:43:41.400Z,38.23
2023-03-30T18:46:13.194Z,38.05
2023-03-30T18:48:41.375Z,38.09
2023-03-30T18:51:12.097Z,38.22
2023-03-30T18:53:40.481Z,38.10
2023-03-30T18:56:13.888Z,38.18
2023-03-30T18:58:43.042Z,38.26
2023-03-30T19:01:12.979Z,38.10
2023-03-30T19:03:42.162Z,38.02
2023-03-30T19:06:14.047Z,38.09
2023-03-30T19:08:43.628Z,38.14
2023-03-30T19:11:15.070Z,38.21
2023-03-30T19:13:43.186Z,38.22
2023-03-30T19:16:11.352Z,38.32
2023-03-30T19:18:40.114Z,38.26
2023-03-30T19:21:08.389Z,38.23
2023-03-30T19:23:36.576Z,38.35
2023-03-30T19:26:04.759Z,38.35
2023-03-30T19:28:34.551Z,38.32
2023-03-30T19:31:06.951Z,38.33
2023-03-30T19:33:35.452Z,38.24
2023-03-30T19:36:04.001Z,38.25
2023-03-30T19:38:34.376Z,38.09
2023-03-30T19:41:04.736Z,38.17
2023-03-30T19:43:34.608Z,38.10
2023-03-30T19:46:29.220Z,38.23
2023-03-30T19:48:57.756Z,38.11
2023-03-30T19:51:25.962Z,38.10
2023-03-30T19:53:54.223Z,38.18
2023-03-30T19:56:23.442Z,38.21
2023-03-30T19:58:54.849Z,38.18
2023-03-30T20:01:23.235Z,38.26
2023-03-30T20:03:52.064Z,38.25
2023-03-30T20:06:20.754Z,38.34
2023-03-30T20:08:48.885Z,38.19
2023-03-30T20:11:16.979Z,38.37
2023-03-30T20:13:47.423Z,38.34
2023-03-30T20:16:21.258Z,38.47
2023-03-30T20:18:50.910Z,38.25
2023-03-30T20:21:19.446Z,38.30
2023-03-30T20:23:48.047Z,38.40
2023-03-30T20:26:19.511Z,38.45
2023-03-30T20:28:48.178Z,38.32
2023-03-30T20:31:17.969Z,38.45
2023-03-30T20:33:46.906Z,38.40
2023-03-30T20:36:15.059Z,38.42
2023-03-30T20:38:46.101Z,38.45
2023-03-30T20:41:14.692Z,38.47
2023-03-30T20:43:56.470Z,38.40
2023-03-30T20:46:35.555Z,38.45
2023-03-30T20:49:03.888Z,38.56
2023-03-30T20:51:32.163Z,38.41
2023-03-30T20:54:00.569Z,38.44
2023-03-30T20:56:29.209Z,38.50
2023-03-30T20:58:58.093Z,38.52
2023-03-30T21:01:29.643Z,38.48
2023-03-30T21:04:03.920Z,38.65
2023-03-30T21:06:33.272Z,38.42
2023-03-30T21:09:03.237Z,38.55
2023-03-30T21:11:34.556Z,38.54
2023-03-30T21:14:03.129Z,38.52
2023-03-30T21:16:32.872Z,38.50
2023-03-30T21:19:01.024Z,38.52
2023-03-30T21:21:29.165Z,38.43
2023-03-30T21:23:58.269Z,38.43
2023-03-30T21:26:26.544Z,38.58
2023-03-30T21:28:54.701Z,38.61
2023-03-30T21:31:23.097Z,38.47
2023-03-30T21:33:52.690Z,38.43
2023-03-30T21:36:20.896Z,38.42
2023-03-30T21:38:49.086Z,38.30
2023-03-30T21:41:18.914Z,38.42
2023-03-30T21:43:48.356Z,38.25
2023-03-30T21:46:18.341Z,38.34
2023-03-30T21:48:47.624Z,38.30
2023-03-30T21:51:19.472Z,38.24
2023-03-30T21:53:50.772Z,38.26
2023-03-30T21:56:20.542Z,38.09
2023-03-30T21:58:48.783Z,38.22
2023-03-30T22:01:17.559Z,38.39
2023-03-30T22:03:46.336Z,38.24
2023-03-30T22:06:17.477Z,38.16
2023-03-30T22:08:46.210Z,38.22
2023-03-30T22:11:16.729Z,38.21
2023-03-30T22:13:47.476Z,38.22
2023-03-30T22:16:17.838Z,38.16
2023-03-30T22:18:47.458Z,38.42
2023-03-30T22:21:18.920Z,38.20
2023-03-30T22:23:47.853Z,38.07
2023-03-30T22:26:16.273Z,38.08
2023-03-30T22:28:44.810Z,37.88
2023-03-30T22:31:15.577Z,38.25
2023-03-30T22:33:44.092Z,38.23
2023-03-30T22:36:19.213Z,38.19
2023-03-30T22:38:48.231Z,38.04
2023-03-30T22:41:16.730Z,38.13
2023-03-30T22:43:44.922Z,38.14
2023-03-30T22:46:13.151Z,38.17
2023-03-30T22:48:42.194Z,38.17
2023-03-30T22:51:14.521Z,38.09
2023-03-30T22:53:44.119Z,38.00
2023-03-30T22:56:12.202Z,38.10
2023-03-30T22:58:40.325Z,38.08
2023-03-30T23:01:10.511Z,38.17
2023-03-30T23:03:39.567Z,38.20
2023-03-30T23:06:09.319Z,38.09
2023-03-30T23:08:39.277Z,37.92
2023-03-30T23:11:09.008Z,38.19
2023-03-30T23:13:38.275Z,38.03
2023-03-30T23:16:08.406Z,38.13
2023-03-30T23:18:43.178Z,38.07
2023-03-30T23:21:14.210Z,38.09
2023-03-30T23:23:42.895Z,38.01
2023-03-30T23:26:12.909Z,37.95
2023-03-30T23:28:42.540Z,38.08
2023-03-30T23:31:12.312Z,38.09
2023-03-30T23:33:41.150Z,38.07
2023-03-30T23:36:10.674Z,38.16
2023-03-30T23:38:39.206Z,38.02
2023-03-30T23:41:07.783Z,38.14
2023-03-30T23:43:37.486Z,38.09
2023-03-30T23:46:06.152Z,37.97
2023-03-30T23:48:34.875Z,38.05
2023-03-30T23:51:03.238Z,37.92
2023-03-30T23:53:31.423Z,38.11
2023-03-30T23:55:59.871Z,38.06
2023-03-30T23:58:28.237Z,38.13
